Pagina principale
METAR-TAF:

METAR-TAF

Aeroporti :

Aeroporto di Berna

Berna, Svizzera

latitudine: 46-55N, longitudine: 007-30E, altezza: 505 m

Osservazione

Il bollettino è stato emesso 24 minuti fa, alle 18:50 UTC
Vento 3 kt da nord-ovest, variando fra ovest/sud-ovest e nord-est
Temperature 18°C
Umidità 52%
Pressione 1022 hPa
Visibilità 10 km o più
nessuna nube inferiore a 1500 m e nessun cumulonembo

METAR: LSZB 231850Z 32003KT 240V040 CAVOK 18/08 Q1022 NOSIG

Ora: 21:14 (19:14 UTC)

Previsione

Il bollettino è stato emesso 4 ore e 49 minuti fa, alle 14:25 UTC
Previsione valida dal 23 alle 15 UTC al 23 alle 24 UTC
Vento 6 kt da nord/nord-ovest
Visibilità 10 km o più
nessuna nube inferiore a 1500 m e nessun cumulonembo

TAF: LSZB 231425Z 2315/2324 34006KT CAVOK

Osservazioni e previsioni meteorologiche di più di 4000 aeroporti (messaggi METAR e TAF).

Le stazioni disponibili sono rappresentate dai dischi gialli e rossi sulla carta.

Puntare il mouse per vedere il nome della stazione.

Clicca sopra per visualizzare le osservazioni e previsioni meteorologiche.

Per cambiare la mappa : fare clic sui pulsanti verdi con una croce nera per ingrandire, il pulsante verde con un trattino per diminuire, o sulla freccia verde per le mappe adiacenti.


METAR-TAF: